sensor_id;sensor_type;location;lat;lon;timestamp;temperature;humidity
51579;DHT22;47998;53.242;6.386;2022-09-27T00:02:16;9.70;99.90
51579;DHT22;47998;53.242;6.386;2022-09-27T00:04:41;9.80;99.90
51579;DHT22;47998;53.242;6.386;2022-09-27T00:07:07;9.30;99.90
51579;DHT22;47998;53.242;6.386;2022-09-27T00:09:34;9.20;99.90
51579;DHT22;47998;53.242;6.386;2022-09-27T00:12:00;9.20;99.90
51579;DHT22;47998;53.242;6.386;2022-09-27T00:14:26;9.70;99.90
51579;DHT22;47998;53.242;6.386;2022-09-27T00:16:52;9.30;99.90
51579;DHT22;47998;53.242;6.386;2022-09-27T00:19:19;8.80;99.90
51579;DHT22;47998;53.242;6.386;2022-09-27T00:21:46;9.30;99.90
51579;DHT22;47998;53.242;6.386;2022-09-27T00:24:17;9.40;99.90
51579;DHT22;47998;53.242;6.386;2022-09-27T00:26:44;8.80;99.90
51579;DHT22;47998;53.242;6.386;2022-09-27T00:29:12;8.70;99.90
51579;DHT22;47998;53.242;6.386;2022-09-27T00:31:38;8.50;99.90
51579;DHT22;47998;53.242;6.386;2022-09-27T00:34:05;8.60;99.90
51579;DHT22;47998;53.242;6.386;2022-09-27T00:36:33;9.00;99.90
51579;DHT22;47998;53.242;6.386;2022-09-27T00:38:59;8.20;99.90
51579;DHT22;47998;53.242;6.386;2022-09-27T00:41:34;8.90;99.90
51579;DHT22;47998;53.242;6.386;2022-09-27T00:44:51;8.80;99.90
51579;DHT22;47998;53.242;6.386;2022-09-27T00:47:06;8.20;99.90
51579;DHT22;47998;53.242;6.386;2022-09-27T00:53:05;8.60;99.90
51579;DHT22;47998;53.242;6.386;2022-09-27T00:55:41;9.40;99.90
51579;DHT22;47998;53.242;6.386;2022-09-27T00:58:10;8.70;99.90
51579;DHT22;47998;53.242;6.386;2022-09-27T01:00:39;9.40;99.90
51579;DHT22;47998;53.242;6.386;2022-09-27T01:03:08;9.50;99.90
51579;DHT22;47998;53.242;6.386;2022-09-27T01:05:37;9.40;99.90
51579;DHT22;47998;53.242;6.386;2022-09-27T01:08:03;9.50;99.90
51579;DHT22;47998;53.242;6.386;2022-09-27T01:10:35;9.30;99.90
51579;DHT22;47998;53.242;6.386;2022-09-27T01:16:11;9.50;99.90
51579;DHT22;47998;53.242;6.386;2022-09-27T01:19:15;9.20;99.90
51579;DHT22;47998;53.242;6.386;2022-09-27T01:27:06;9.00;99.90
51579;DHT22;47998;53.242;6.386;2022-09-27T01:29:52;9.50;99.90
51579;DHT22;47998;53.242;6.386;2022-09-27T01:33:03;9.10;99.90
51579;DHT22;47998;53.242;6.386;2022-09-27T01:38:24;9.40;99.90
51579;DHT22;47998;53.242;6.386;2022-09-27T01:41:14;9.50;99.90
51579;DHT22;47998;53.242;6.386;2022-09-27T01:43:49;9.50;99.90
51579;DHT22;47998;53.242;6.386;2022-09-27T01:46:21;9.50;99.90
51579;DHT22;47998;53.242;6.386;2022-09-27T01:48:49;9.40;99.90
51579;DHT22;47998;53.242;6.386;2022-09-27T01:51:22;9.30;99.90
51579;DHT22;47998;53.242;6.386;2022-09-27T01:54:00;8.90;99.90
51579;DHT22;47998;53.242;6.386;2022-09-27T01:56:37;9.30;99.90
51579;DHT22;47998;53.242;6.386;2022-09-27T01:59:19;8.80;99.90
51579;DHT22;47998;53.242;6.386;2022-09-27T02:01:49;9.20;99.90
51579;DHT22;47998;53.242;6.386;2022-09-27T02:04:23;9.20;99.90
51579;DHT22;47998;53.242;6.386;2022-09-27T02:06:55;9.10;99.90
51579;DHT22;47998;53.242;6.386;2022-09-27T02:09:45;9.20;99.90
51579;DHT22;47998;53.242;6.386;2022-09-27T02:12:15;9.10;99.90
51579;DHT22;47998;53.242;6.386;2022-09-27T02:15:00;9.20;99.90
51579;DHT22;47998;53.242;6.386;2022-09-27T02:17:44;9.20;99.90
51579;DHT22;47998;53.242;6.386;2022-09-27T02:26:02;9.40;99.90
51579;DHT22;47998;53.242;6.386;2022-09-27T02:31:02;9.20;99.90
51579;DHT22;47998;53.242;6.386;2022-09-27T02:33:43;8.60;99.90
51579;DHT22;47998;53.242;6.386;2022-09-27T02:36:10;8.50;99.90
51579;DHT22;47998;53.242;6.386;2022-09-27T02:38:37;8.60;99.90
51579;DHT22;47998;53.242;6.386;2022-09-27T02:41:03;8.50;99.90
51579;DHT22;47998;53.242;6.386;2022-09-27T02:43:31;9.10;99.90
51579;DHT22;47998;53.242;6.386;2022-09-27T03:00:13;9.40;99.90
51579;DHT22;47998;53.242;6.386;2022-09-27T03:03:19;8.90;99.90
51579;DHT22;47998;53.242;6.386;2022-09-27T03:06:04;9.20;99.90
51579;DHT22;47998;53.242;6.386;2022-09-27T03:08:31;9.40;99.90
51579;DHT22;47998;53.242;6.386;2022-09-27T03:10:57;8.60;99.90
51579;DHT22;47998;53.242;6.386;2022-09-27T03:13:22;8.70;99.90
51579;DHT22;47998;53.242;6.386;2022-09-27T03:15:48;8.60;99.90
51579;DHT22;47998;53.242;6.386;2022-09-27T03:18:14;9.00;99.90
51579;DHT22;47998;53.242;6.386;2022-09-27T03:20:39;8.40;99.90
51579;DHT22;47998;53.242;6.386;2022-09-27T03:23:05;8.80;99.90
51579;DHT22;47998;53.242;6.386;2022-09-27T03:25:31;8.90;99.90
51579;DHT22;47998;53.242;6.386;2022-09-27T03:27:56;8.50;99.90
51579;DHT22;47998;53.242;6.386;2022-09-27T03:30:22;8.70;99.90
51579;DHT22;47998;53.242;6.386;2022-09-27T03:32:47;8.30;99.90
51579;DHT22;47998;53.242;6.386;2022-09-27T03:35:14;8.60;99.90
51579;DHT22;47998;53.242;6.386;2022-09-27T03:37:40;7.40;99.90
51579;DHT22;47998;53.242;6.386;2022-09-27T03:40:07;9.00;99.90
51579;DHT22;47998;53.242;6.386;2022-09-27T03:42:33;8.70;99.90
51579;DHT22;47998;53.242;6.386;2022-09-27T03:44:59;8.90;99.90
51579;DHT22;47998;53.242;6.386;2022-09-27T03:47:25;8.70;99.90
51579;DHT22;47998;53.242;6.386;2022-09-27T03:49:50;8.90;99.90
51579;DHT22;47998;53.242;6.386;2022-09-27T03:52:16;8.50;99.90
51579;DHT22;47998;53.242;6.386;2022-09-27T03:54:43;8.90;99.90
51579;DHT22;47998;53.242;6.386;2022-09-27T03:57:09;8.50;99.90
51579;DHT22;47998;53.242;6.386;2022-09-27T03:59:35;8.80;99.90
51579;DHT22;47998;53.242;6.386;2022-09-27T04:02:00;8.60;99.90
51579;DHT22;47998;53.242;6.386;2022-09-27T04:04:26;9.10;99.90
51579;DHT22;47998;53.242;6.386;2022-09-27T04:06:52;8.80;99.90
51579;DHT22;47998;53.242;6.386;2022-09-27T04:09:17;9.20;99.90
51579;DHT22;47998;53.242;6.386;2022-09-27T04:11:43;8.50;99.90
51579;DHT22;47998;53.242;6.386;2022-09-27T04:14:09;8.40;99.90
51579;DHT22;47998;53.242;6.386;2022-09-27T04:16:37;8.50;99.90
51579;DHT22;47998;53.242;6.386;2022-09-27T04:19:04;8.60;99.90
51579;DHT22;47998;53.242;6.386;2022-09-27T04:21:30;8.40;99.90
51579;DHT22;47998;53.242;6.386;2022-09-27T04:23:56;8.90;99.90
51579;DHT22;47998;53.242;6.386;2022-09-27T04:26:22;9.10;99.90
51579;DHT22;47998;53.242;6.386;2022-09-27T04:28:47;9.10;99.90
51579;DHT22;47998;53.242;6.386;2022-09-27T04:31:15;8.70;99.90
51579;DHT22;47998;53.242;6.386;2022-09-27T04:33:41;8.60;99.90
51579;DHT22;47998;53.242;6.386;2022-09-27T04:36:08;8.80;99.90
51579;DHT22;47998;53.242;6.386;2022-09-27T04:39:00;9.10;99.90
51579;DHT22;47998;53.242;6.386;2022-09-27T04:41:27;8.70;99.90
51579;DHT22;47998;53.242;6.386;2022-09-27T04:43:57;8.70;99.90
51579;DHT22;47998;53.242;6.386;2022-09-27T04:46:26;8.70;99.90
51579;DHT22;47998;53.242;6.386;2022-09-27T04:48:57;9.00;99.90
51579;DHT22;47998;53.242;6.386;2022-09-27T04:51:23;8.60;99.90
51579;DHT22;47998;53.242;6.386;2022-09-27T04:53:48;8.80;99.90
51579;DHT22;47998;53.242;6.386;2022-09-27T04:56:14;9.00;99.90
51579;DHT22;47998;53.242;6.386;2022-09-27T04:58:40;8.50;99.90
51579;DHT22;47998;53.242;6.386;2022-09-27T05:01:06;8.50;99.90
51579;DHT22;47998;53.242;6.386;2022-09-27T05:03:34;8.50;99.90
51579;DHT22;47998;53.242;6.386;2022-09-27T05:06:00;8.70;99.90
51579;DHT22;47998;53.242;6.386;2022-09-27T05:08:26;8.50;99.90
51579;DHT22;47998;53.242;6.386;2022-09-27T05:10:53;8.80;99.90
51579;DHT22;47998;53.242;6.386;2022-09-27T05:13:18;8.60;99.90
51579;DHT22;47998;53.242;6.386;2022-09-27T05:15:44;8.60;99.90
51579;DHT22;47998;53.242;6.386;2022-09-27T05:18:10;8.30;99.90
51579;DHT22;47998;53.242;6.386;2022-09-27T05:20:36;8.40;99.90
51579;DHT22;47998;53.242;6.386;2022-09-27T05:23:02;8.30;99.90
51579;DHT22;47998;53.242;6.386;2022-09-27T05:25:29;8.50;99.90
51579;DHT22;47998;53.242;6.386;2022-09-27T05:27:56;8.20;99.90
51579;DHT22;47998;53.242;6.386;2022-09-27T05:30:23;8.60;99.90
51579;DHT22;47998;53.242;6.386;2022-09-27T05:32:49;8.40;99.90
51579;DHT22;47998;53.242;6.386;2022-09-27T05:35:16;8.70;99.90
51579;DHT22;47998;53.242;6.386;2022-09-27T05:37:56;8.60;99.90
51579;DHT22;47998;53.242;6.386;2022-09-27T05:40:23;8.70;99.90
51579;DHT22;47998;53.242;6.386;2022-09-27T05:42:53;8.70;99.90
51579;DHT22;47998;53.242;6.386;2022-09-27T05:45:20;8.80;99.90
51579;DHT22;47998;53.242;6.386;2022-09-27T05:47:57;8.30;99.90
51579;DHT22;47998;53.242;6.386;2022-09-27T05:50:26;8.40;99.90
51579;DHT22;47998;53.242;6.386;2022-09-27T05:52:53;8.60;99.90
51579;DHT22;47998;53.242;6.386;2022-09-27T05:55:19;8.40;99.90
51579;DHT22;47998;53.242;6.386;2022-09-27T05:58:09;8.80;99.90
51579;DHT22;47998;53.242;6.386;2022-09-27T06:00:38;8.80;99.90
51579;DHT22;47998;53.242;6.386;2022-09-27T06:03:05;8.90;99.90
51579;DHT22;47998;53.242;6.386;2022-09-27T06:05:34;8.00;99.90
51579;DHT22;47998;53.242;6.386;2022-09-27T06:08:03;9.20;99.90
51579;DHT22;47998;53.242;6.386;2022-09-27T06:10:30;8.70;99.90
51579;DHT22;47998;53.242;6.386;2022-09-27T06:13:04;8.90;99.90
51579;DHT22;47998;53.242;6.386;2022-09-27T06:15:32;8.40;99.90
51579;DHT22;47998;53.242;6.386;2022-09-27T06:18:03;8.80;99.90
51579;DHT22;47998;53.242;6.386;2022-09-27T06:20:29;8.20;99.90
51579;DHT22;47998;53.242;6.386;2022-09-27T06:23:03;8.20;99.90
51579;DHT22;47998;53.242;6.386;2022-09-27T06:25:29;8.20;99.90
51579;DHT22;47998;53.242;6.386;2022-09-27T06:27:54;8.20;99.90
51579;DHT22;47998;53.242;6.386;2022-09-27T06:30:20;8.20;99.90
51579;DHT22;47998;53.242;6.386;2022-09-27T06:32:46;8.20;99.90
51579;DHT22;47998;53.242;6.386;2022-09-27T06:35:11;9.50;99.90
51579;DHT22;47998;53.242;6.386;2022-09-27T06:37:37;9.20;99.90
51579;DHT22;47998;53.242;6.386;2022-09-27T06:40:03;8.80;99.90
51579;DHT22;47998;53.242;6.386;2022-09-27T06:42:29;8.20;99.90
51579;DHT22;47998;53.242;6.386;2022-09-27T06:44:55;10.00;99.90
51579;DHT22;47998;53.242;6.386;2022-09-27T06:47:20;9.90;99.90
51579;DHT22;47998;53.242;6.386;2022-09-27T06:49:48;7.50;99.90
51579;DHT22;47998;53.242;6.386;2022-09-27T06:52:14;7.80;99.90
51579;DHT22;47998;53.242;6.386;2022-09-27T06:54:39;8.60;99.90
51579;DHT22;47998;53.242;6.386;2022-09-27T06:57:05;7.90;99.90
51579;DHT22;47998;53.242;6.386;2022-09-27T06:59:31;10.00;99.90
51579;DHT22;47998;53.242;6.386;2022-09-27T07:02:15;9.30;99.90
51579;DHT22;47998;53.242;6.386;2022-09-27T07:04:41;7.90;99.90
51579;DHT22;47998;53.242;6.386;2022-09-27T07:07:07;10.00;99.90
51579;DHT22;47998;53.242;6.386;2022-09-27T07:09:33;7.90;99.90
51579;DHT22;47998;53.242;6.386;2022-09-27T07:11:59;7.90;99.90
51579;DHT22;47998;53.242;6.386;2022-09-27T07:14:25;10.20;99.90
51579;DHT22;47998;53.242;6.386;2022-09-27T07:16:51;8.30;99.90
51579;DHT22;47998;53.242;6.386;2022-09-27T07:19:16;8.40;99.90
51579;DHT22;47998;53.242;6.386;2022-09-27T07:21:42;9.70;99.90
51579;DHT22;47998;53.242;6.386;2022-09-27T07:24:08;9.10;99.90
51579;DHT22;47998;53.242;6.386;2022-09-27T07:26:34;9.50;99.90
51579;DHT22;47998;53.242;6.386;2022-09-27T07:28:59;9.70;99.90
51579;DHT22;47998;53.242;6.386;2022-09-27T07:31:26;10.00;99.90
51579;DHT22;47998;53.242;6.386;2022-09-27T07:33:54;9.60;99.90
51579;DHT22;47998;53.242;6.386;2022-09-27T07:36:19;8.40;99.90
51579;DHT22;47998;53.242;6.386;2022-09-27T07:38:46;9.80;99.90
51579;DHT22;47998;53.242;6.386;2022-09-27T07:41:13;9.70;99.90
51579;DHT22;47998;53.242;6.386;2022-09-27T07:43:40;9.90;99.90
51579;DHT22;47998;53.242;6.386;2022-09-27T07:46:06;8.40;99.90
51579;DHT22;47998;53.242;6.386;2022-09-27T07:48:32;8.70;99.90
51579;DHT22;47998;53.242;6.386;2022-09-27T07:50:58;8.10;99.90
51579;DHT22;47998;53.242;6.386;2022-09-27T07:53:24;8.30;99.90
51579;DHT22;47998;53.242;6.386;2022-09-27T07:55:51;9.20;99.90
51579;DHT22;47998;53.242;6.386;2022-09-27T07:58:20;8.20;99.90
51579;DHT22;47998;53.242;6.386;2022-09-27T08:00:46;8.90;99.90
51579;DHT22;47998;53.242;6.386;2022-09-27T08:03:14;8.30;99.90
51579;DHT22;47998;53.242;6.386;2022-09-27T08:05:41;8.50;99.90
51579;DHT22;47998;53.242;6.386;2022-09-27T08:08:07;10.20;99.90
51579;DHT22;47998;53.242;6.386;2022-09-27T08:10:34;10.20;99.90
51579;DHT22;47998;53.242;6.386;2022-09-27T08:13:00;10.00;99.90
51579;DHT22;47998;53.242;6.386;2022-09-27T08:15:31;9.00;99.90
51579;DHT22;47998;53.242;6.386;2022-09-27T08:17:57;9.40;99.90
51579;DHT22;47998;53.242;6.386;2022-09-27T08:20:23;9.60;99.90
51579;DHT22;47998;53.242;6.386;2022-09-27T08:22:49;10.60;99.90
51579;DHT22;47998;53.242;6.386;2022-09-27T08:25:14;10.50;99.90
51579;DHT22;47998;53.242;6.386;2022-09-27T08:27:41;9.60;99.90
51579;DHT22;47998;53.242;6.386;2022-09-27T08:30:07;10.50;99.90
51579;DHT22;47998;53.242;6.386;2022-09-27T08:32:33;10.70;99.90
51579;DHT22;47998;53.242;6.386;2022-09-27T08:34:59;10.60;99.90
51579;DHT22;47998;53.242;6.386;2022-09-27T08:37:25;10.70;99.90
51579;DHT22;47998;53.242;6.386;2022-09-27T08:39:51;9.20;99.90
51579;DHT22;47998;53.242;6.386;2022-09-27T08:45:15;9.50;99.90
51579;DHT22;47998;53.242;6.386;2022-09-27T08:47:53;10.60;99.90
51579;DHT22;47998;53.242;6.386;2022-09-27T08:50:25;10.60;99.90
51579;DHT22;47998;53.242;6.386;2022-09-27T08:55:37;11.00;99.90
51579;DHT22;47998;53.242;6.386;2022-09-27T08:58:39;11.00;99.90
51579;DHT22;47998;53.242;6.386;2022-09-27T09:01:11;9.90;99.90
51579;DHT22;47998;53.242;6.386;2022-09-27T09:03:44;10.60;99.90
51579;DHT22;47998;53.242;6.386;2022-09-27T09:06:25;11.20;99.90
51579;DHT22;47998;53.242;6.386;2022-09-27T09:14:44;10.50;99.90
51579;DHT22;47998;53.242;6.386;2022-09-27T09:17:17;10.20;99.90
51579;DHT22;47998;53.242;6.386;2022-09-27T09:19:54;10.10;99.90
51579;DHT22;47998;53.242;6.386;2022-09-27T09:34:24;10.30;99.90
51579;DHT22;47998;53.242;6.386;2022-09-27T09:37:16;9.30;99.90
51579;DHT22;47998;53.242;6.386;2022-09-27T09:40:25;9.60;99.90
51579;DHT22;47998;53.242;6.386;2022-09-27T09:45:30;9.60;99.90
51579;DHT22;47998;53.242;6.386;2022-09-27T09:49:02;10.00;99.90
51579;DHT22;47998;53.242;6.386;2022-09-27T09:50:58;9.70;99.90
51579;DHT22;47998;53.242;6.386;2022-09-27T09:54:13;10.00;99.90
51579;DHT22;47998;53.242;6.386;2022-09-27T09:56:35;10.40;99.90
51579;DHT22;47998;53.242;6.386;2022-09-27T09:59:14;10.30;99.90
51579;DHT22;47998;53.242;6.386;2022-09-27T10:01:44;10.30;99.90
51579;DHT22;47998;53.242;6.386;2022-09-27T10:04:19;10.40;99.90
51579;DHT22;47998;53.242;6.386;2022-09-27T10:06:46;11.30;99.90
51579;DHT22;47998;53.242;6.386;2022-09-27T10:09:14;10.90;99.90
51579;DHT22;47998;53.242;6.386;2022-09-27T10:11:43;10.80;99.90
51579;DHT22;47998;53.242;6.386;2022-09-27T10:14:11;10.70;99.90
51579;DHT22;47998;53.242;6.386;2022-09-27T10:16:39;11.30;99.90
51579;DHT22;47998;53.242;6.386;2022-09-27T10:19:08;11.60;99.90
51579;DHT22;47998;53.242;6.386;2022-09-27T10:21:38;11.00;99.90
51579;DHT22;47998;53.242;6.386;2022-09-27T10:24:12;10.60;99.90
51579;DHT22;47998;53.242;6.386;2022-09-27T10:26:41;10.50;99.90
51579;DHT22;47998;53.242;6.386;2022-09-27T10:29:22;10.30;99.90
51579;DHT22;47998;53.242;6.386;2022-09-27T10:31:49;10.90;99.90
51579;DHT22;47998;53.242;6.386;2022-09-27T10:34:24;10.60;99.90
51579;DHT22;47998;53.242;6.386;2022-09-27T10:39:28;10.30;99.90
51579;DHT22;47998;53.242;6.386;2022-09-27T10:41:54;10.20;99.90
51579;DHT22;47998;53.242;6.386;2022-09-27T10:44:29;9.10;99.90
51579;DHT22;47998;53.242;6.386;2022-09-27T10:47:05;9.20;99.90
51579;DHT22;47998;53.242;6.386;2022-09-27T10:49:35;9.20;99.90
51579;DHT22;47998;53.242;6.386;2022-09-27T10:52:06;8.60;99.90
51579;DHT22;47998;53.242;6.386;2022-09-27T10:54:38;9.30;99.90
51579;DHT22;47998;53.242;6.386;2022-09-27T10:59:43;9.50;99.90
51579;DHT22;47998;53.242;6.386;2022-09-27T11:02:31;9.30;99.90
51579;DHT22;47998;53.242;6.386;2022-09-27T11:05:13;9.40;99.90
51579;DHT22;47998;53.242;6.386;2022-09-27T11:10:44;9.90;99.90
51579;DHT22;47998;53.242;6.386;2022-09-27T11:13:24;9.90;99.90
51579;DHT22;47998;53.242;6.386;2022-09-27T11:16:03;9.90;99.90
51579;DHT22;47998;53.242;6.386;2022-09-27T11:22:00;10.60;99.90
51579;DHT22;47998;53.242;6.386;2022-09-27T11:24:54;11.20;99.90
51579;DHT22;47998;53.242;6.386;2022-09-27T11:27:35;11.80;99.90
51579;DHT22;47998;53.242;6.386;2022-09-27T11:30:11;12.30;99.90
51579;DHT22;47998;53.242;6.386;2022-09-27T11:35:58;12.80;99.90
51579;DHT22;47998;53.242;6.386;2022-09-27T11:52:14;11.00;99.90
51579;DHT22;47998;53.242;6.386;2022-09-27T12:00:42;11.70;99.90
51579;DHT22;47998;53.242;6.386;2022-09-27T12:14:24;11.70;13.60
51579;DHT22;47998;53.242;6.386;2022-09-27T12:16:56;11.90;99.90
51579;DHT22;47998;53.242;6.386;2022-09-27T12:19:26;12.20;99.90
51579;DHT22;47998;53.242;6.386;2022-09-27T12:21:55;12.60;99.90
51579;DHT22;47998;53.242;6.386;2022-09-27T12:24:22;12.50;1.00
51579;DHT22;47998;53.242;6.386;2022-09-27T12:26:55;12.60;7.90
51579;DHT22;47998;53.242;6.386;2022-09-27T12:29:31;12.50;99.90
51579;DHT22;47998;53.242;6.386;2022-09-27T12:32:15;12.30;51.40
51579;DHT22;47998;53.242;6.386;2022-09-27T12:37:39;12.00;1.00
51579;DHT22;47998;53.242;6.386;2022-09-27T12:40:18;11.90;1.00
51579;DHT22;47998;53.242;6.386;2022-09-27T12:46:28;11.60;99.90
51579;DHT22;47998;53.242;6.386;2022-09-27T12:51:49;11.30;99.90
51579;DHT22;47998;53.242;6.386;2022-09-27T12:57:29;11.40;99.90
51579;DHT22;47998;53.242;6.386;2022-09-27T13:00:18;11.40;99.90
51579;DHT22;47998;53.242;6.386;2022-09-27T13:13:30;10.90;99.90
51579;DHT22;47998;53.242;6.386;2022-09-27T13:15:58;10.80;99.90
51579;DHT22;47998;53.242;6.386;2022-09-27T13:21:06;10.10;99.90
51579;DHT22;47998;53.242;6.386;2022-09-27T13:26:21;9.80;99.90
51579;DHT22;47998;53.242;6.386;2022-09-27T13:31:13;9.20;99.90
51579;DHT22;47998;53.242;6.386;2022-09-27T13:33:48;9.20;99.90
51579;DHT22;47998;53.242;6.386;2022-09-27T13:41:27;9.90;99.90
51579;DHT22;47998;53.242;6.386;2022-09-27T13:44:27;10.30;99.90
51579;DHT22;47998;53.242;6.386;2022-09-27T13:47:22;9.90;99.90
51579;DHT22;47998;53.242;6.386;2022-09-27T13:49:51;11.00;99.90
51579;DHT22;47998;53.242;6.386;2022-09-27T13:52:31;10.40;99.90
51579;DHT22;47998;53.242;6.386;2022-09-27T13:55:03;11.10;99.90
51579;DHT22;47998;53.242;6.386;2022-09-27T13:57:55;10.00;99.90
51579;DHT22;47998;53.242;6.386;2022-09-27T14:00:24;9.60;99.90
51579;DHT22;47998;53.242;6.386;2022-09-27T14:03:14;9.30;99.90
51579;DHT22;47998;53.242;6.386;2022-09-27T14:05:51;9.30;99.90
51579;DHT22;47998;53.242;6.386;2022-09-27T14:10:52;8.90;99.90
51579;DHT22;47998;53.242;6.386;2022-09-27T14:13:19;8.80;99.90
51579;DHT22;47998;53.242;6.386;2022-09-27T14:15:47;9.60;99.90
51579;DHT22;47998;53.242;6.386;2022-09-27T14:18:14;9.60;99.90
51579;DHT22;47998;53.242;6.386;2022-09-27T14:20:43;8.90;99.90
51579;DHT22;47998;53.242;6.386;2022-09-27T14:23:24;9.00;99.90
51579;DHT22;47998;53.242;6.386;2022-09-27T14:25:52;8.90;99.90
51579;DHT22;47998;53.242;6.386;2022-09-27T14:28:27;9.10;99.90
51579;DHT22;47998;53.242;6.386;2022-09-27T14:33:37;9.90;99.90
51579;DHT22;47998;53.242;6.386;2022-09-27T14:36:06;10.00;99.90
51579;DHT22;47998;53.242;6.386;2022-09-27T14:38:51;9.60;99.90
51579;DHT22;47998;53.242;6.386;2022-09-27T14:41:17;9.60;99.90
51579;DHT22;47998;53.242;6.386;2022-09-27T14:43:44;9.80;99.90
51579;DHT22;47998;53.242;6.386;2022-09-27T14:46:40;9.80;99.90
51579;DHT22;47998;53.242;6.386;2022-09-27T14:49:22;10.30;99.90
51579;DHT22;47998;53.242;6.386;2022-09-27T14:51:53;9.90;99.90
51579;DHT22;47998;53.242;6.386;2022-09-27T14:54:25;10.40;99.90
51579;DHT22;47998;53.242;6.386;2022-09-27T14:56:55;10.20;99.90
51579;DHT22;47998;53.242;6.386;2022-09-27T14:59:25;9.80;99.90
51579;DHT22;47998;53.242;6.386;2022-09-27T15:01:57;10.50;99.90
51579;DHT22;47998;53.242;6.386;2022-09-27T15:04:26;9.80;99.90
51579;DHT22;47998;53.242;6.386;2022-09-27T15:06:54;10.40;99.90
51579;DHT22;47998;53.242;6.386;2022-09-27T15:09:21;10.40;99.90
51579;DHT22;47998;53.242;6.386;2022-09-27T15:11:52;10.40;99.90
51579;DHT22;47998;53.242;6.386;2022-09-27T15:14:19;9.90;99.90
51579;DHT22;47998;53.242;6.386;2022-09-27T15:16:48;10.30;99.90
51579;DHT22;47998;53.242;6.386;2022-09-27T15:19:24;9.90;99.90
51579;DHT22;47998;53.242;6.386;2022-09-27T15:21:51;10.40;99.90
51579;DHT22;47998;53.242;6.386;2022-09-27T15:27:02;10.50;99.90
51579;DHT22;47998;53.242;6.386;2022-09-27T15:29:28;10.20;99.90
51579;DHT22;47998;53.242;6.386;2022-09-27T15:32:03;10.00;99.90
51579;DHT22;47998;53.242;6.386;2022-09-27T15:34:30;10.60;99.90
51579;DHT22;47998;53.242;6.386;2022-09-27T15:36:59;10.80;99.90
51579;DHT22;47998;53.242;6.386;2022-09-27T15:39:40;10.10;99.90
51579;DHT22;47998;53.242;6.386;2022-09-27T15:42:11;10.10;99.90
51579;DHT22;47998;53.242;6.386;2022-09-27T15:44:51;10.10;99.90
51579;DHT22;47998;53.242;6.386;2022-09-27T15:52:52;10.80;99.90
51579;DHT22;47998;53.242;6.386;2022-09-27T15:55:25;10.30;99.90
51579;DHT22;47998;53.242;6.386;2022-09-27T16:00:24;10.20;99.90
51579;DHT22;47998;53.242;6.386;2022-09-27T16:02:50;10.70;99.90
51579;DHT22;47998;53.242;6.386;2022-09-27T16:05:15;10.60;99.90
51579;DHT22;47998;53.242;6.386;2022-09-27T16:07:41;10.60;99.90
51579;DHT22;47998;53.242;6.386;2022-09-27T16:10:13;10.20;99.90
51579;DHT22;47998;53.242;6.386;2022-09-27T16:12:41;10.50;99.90
51579;DHT22;47998;53.242;6.386;2022-09-27T16:15:10;10.10;99.90
51579;DHT22;47998;53.242;6.386;2022-09-27T16:17:36;10.80;99.90
51579;DHT22;47998;53.242;6.386;2022-09-27T16:20:04;10.00;99.90
51579;DHT22;47998;53.242;6.386;2022-09-27T16:22:29;10.30;99.90
51579;DHT22;47998;53.242;6.386;2022-09-27T16:24:55;9.90;99.90
51579;DHT22;47998;53.242;6.386;2022-09-27T16:27:23;10.30;99.90
51579;DHT22;47998;53.242;6.386;2022-09-27T16:29:49;10.00;99.90
51579;DHT22;47998;53.242;6.386;2022-09-27T16:32:15;10.10;99.90
51579;DHT22;47998;53.242;6.386;2022-09-27T16:34:40;10.50;99.90
51579;DHT22;47998;53.242;6.386;2022-09-27T16:37:06;10.60;99.90
51579;DHT22;47998;53.242;6.386;2022-09-27T16:39:34;10.20;99.90
51579;DHT22;47998;53.242;6.386;2022-09-27T16:42:00;9.60;99.90
51579;DHT22;47998;53.242;6.386;2022-09-27T16:44:30;9.50;99.90
51579;DHT22;47998;53.242;6.386;2022-09-27T16:46:58;9.60;99.90
51579;DHT22;47998;53.242;6.386;2022-09-27T16:49:24;9.40;99.90
51579;DHT22;47998;53.242;6.386;2022-09-27T16:52:08;9.40;99.90
51579;DHT22;47998;53.242;6.386;2022-09-27T16:54:34;8.60;99.90
51579;DHT22;47998;53.242;6.386;2022-09-27T16:57:00;8.90;99.90
51579;DHT22;47998;53.242;6.386;2022-09-27T16:59:26;8.70;99.90
51579;DHT22;47998;53.242;6.386;2022-09-27T17:01:53;8.90;99.90
51579;DHT22;47998;53.242;6.386;2022-09-27T17:04:23;8.80;99.90
51579;DHT22;47998;53.242;6.386;2022-09-27T17:06:49;8.50;99.90
51579;DHT22;47998;53.242;6.386;2022-09-27T17:09:15;8.80;99.90
51579;DHT22;47998;53.242;6.386;2022-09-27T17:11:40;8.30;99.90
51579;DHT22;47998;53.242;6.386;2022-09-27T17:14:06;8.70;99.90
51579;DHT22;47998;53.242;6.386;2022-09-27T17:16:34;8.30;99.90
51579;DHT22;47998;53.242;6.386;2022-09-27T17:19:00;8.40;99.90
51579;DHT22;47998;53.242;6.386;2022-09-27T17:21:26;8.50;99.90
51579;DHT22;47998;53.242;6.386;2022-09-27T17:23:52;8.40;99.90
51579;DHT22;47998;53.242;6.386;2022-09-27T17:26:20;8.50;99.90
51579;DHT22;47998;53.242;6.386;2022-09-27T17:28:47;8.40;99.90
51579;DHT22;47998;53.242;6.386;2022-09-27T17:31:14;8.40;99.90
51579;DHT22;47998;53.242;6.386;2022-09-27T17:33:44;8.00;99.90
51579;DHT22;47998;53.242;6.386;2022-09-27T17:36:13;8.40;99.90
51579;DHT22;47998;53.242;6.386;2022-09-27T17:38:40;7.90;99.90
51579;DHT22;47998;53.242;6.386;2022-09-27T17:41:07;8.00;99.90
51579;DHT22;47998;53.242;6.386;2022-09-27T17:43:41;8.00;99.90
51579;DHT22;47998;53.242;6.386;2022-09-27T17:46:21;7.80;99.90
51579;DHT22;47998;53.242;6.386;2022-09-27T17:48:48;7.80;99.90
51579;DHT22;47998;53.242;6.386;2022-09-27T17:51:33;7.70;99.90
51579;DHT22;47998;53.242;6.386;2022-09-27T17:54:00;8.10;99.90
51579;DHT22;47998;53.242;6.386;2022-09-27T17:56:26;7.90;99.90
51579;DHT22;47998;53.242;6.386;2022-09-27T17:58:53;7.80;99.90
51579;DHT22;47998;53.242;6.386;2022-09-27T18:01:22;7.90;99.90
51579;DHT22;47998;53.242;6.386;2022-09-27T18:03:52;7.80;99.90
51579;DHT22;47998;53.242;6.386;2022-09-27T18:06:19;7.60;99.90
51579;DHT22;47998;53.242;6.386;2022-09-27T18:08:44;7.60;99.90
51579;DHT22;47998;53.242;6.386;2022-09-27T18:11:13;7.50;99.90
51579;DHT22;47998;53.242;6.386;2022-09-27T18:13:40;7.70;99.90
51579;DHT22;47998;53.242;6.386;2022-09-27T18:16:12;7.70;99.90
51579;DHT22;47998;53.242;6.386;2022-09-27T18:18:40;7.90;99.90
51579;DHT22;47998;53.242;6.386;2022-09-27T18:21:18;7.90;99.90
51579;DHT22;47998;53.242;6.386;2022-09-27T18:23:49;7.70;99.90
51579;DHT22;47998;53.242;6.386;2022-09-27T18:26:19;7.60;99.90
51579;DHT22;47998;53.242;6.386;2022-09-27T18:28:52;7.80;99.90
51579;DHT22;47998;53.242;6.386;2022-09-27T18:31:20;8.00;99.90
51579;DHT22;47998;53.242;6.386;2022-09-27T18:33:47;8.00;99.90
51579;DHT22;47998;53.242;6.386;2022-09-27T18:36:22;8.10;99.90
51579;DHT22;47998;53.242;6.386;2022-09-27T18:38:54;7.60;99.90
51579;DHT22;47998;53.242;6.386;2022-09-27T18:41:22;8.00;99.90
51579;DHT22;47998;53.242;6.386;2022-09-27T18:44:00;7.60;99.90
51579;DHT22;47998;53.242;6.386;2022-09-27T18:46:29;8.00;99.90